sensor_id;sensor_type;location;lat;lon;timestamp;P1;durP1;ratioP1;P2;durP2;ratioP2
23252;SDS011;11795;47.054;15.408;2023-06-14T00:00:00;2.9;;;2.6;;
23252;SDS011;11795;47.054;15.408;2023-06-14T00:02:00;2.9;;;2.6;;
23252;SDS011;11795;47.054;15.408;2023-06-14T00:04:01;4.4;;;2.7;;
23252;SDS011;11795;47.054;15.408;2023-06-14T00:06:00;4.4;;;2.7;;
23252;SDS011;11795;47.054;15.408;2023-06-14T00:08:00;4.4;;;2.7;;
23252;SDS011;11795;47.054;15.408;2023-06-14T00:10:00;3.0;;;2.7;;
23252;SDS011;11795;47.054;15.408;2023-06-14T00:12:00;3.0;;;2.7;;
23252;SDS011;11795;47.054;15.408;2023-06-14T00:14:00;3.1;;;2.8;;
23252;SDS011;11795;47.054;15.408;2023-06-14T00:16:00;3.1;;;2.8;;
23252;SDS011;11795;47.054;15.408;2023-06-14T00:18:01;3.1;;;2.8;;
23252;SDS011;11795;47.054;15.408;2023-06-14T00:20:01;3.6;;;2.9;;
23252;SDS011;11795;47.054;15.408;2023-06-14T00:22:01;3.6;;;2.9;;
23252;SDS011;11795;47.054;15.408;2023-06-14T00:24:00;3.7;;;2.9;;
23252;SDS011;11795;47.054;15.408;2023-06-14T00:26:00;3.7;;;2.9;;
23252;SDS011;11795;47.054;15.408;2023-06-14T00:28:00;3.7;;;2.9;;
23252;SDS011;11795;47.054;15.408;2023-06-14T00:30:00;3.6;;;2.7;;
23252;SDS011;11795;47.054;15.408;2023-06-14T00:32:00;3.6;;;2.7;;
23252;SDS011;11795;47.054;15.408;2023-06-14T00:34:00;3.2;;;2.9;;
23252;SDS011;11795;47.054;15.408;2023-06-14T00:36:00;3.2;;;2.9;;
23252;SDS011;11795;47.054;15.408;2023-06-14T00:38:01;3.2;;;2.9;;
23252;SDS011;11795;47.054;15.408;2023-06-14T00:40:00;3.2;;;2.9;;
23252;SDS011;11795;47.054;15.408;2023-06-14T00:42:00;3.2;;;2.9;;
23252;SDS011;11795;47.054;15.408;2023-06-14T00:44:00;3.7;;;2.9;;
23252;SDS011;11795;47.054;15.408;2023-06-14T00:46:00;3.7;;;2.9;;
23252;SDS011;11795;47.054;15.408;2023-06-14T00:48:00;3.7;;;2.9;;
23252;SDS011;11795;47.054;15.408;2023-06-14T00:50:00;3.0;;;2.7;;
23252;SDS011;11795;47.054;15.408;2023-06-14T00:52:02;3.0;;;2.7;;
23252;SDS011;11795;47.054;15.408;2023-06-14T00:54:00;3.4;;;2.9;;
23252;SDS011;11795;47.054;15.408;2023-06-14T00:56:00;3.4;;;2.9;;
23252;SDS011;11795;47.054;15.408;2023-06-14T00:58:00;3.4;;;2.9;;
23252;SDS011;11795;47.054;15.408;2023-06-14T01:00:00;2.9;;;2.7;;
23252;SDS011;11795;47.054;15.408;2023-06-14T01:02:00;2.9;;;2.7;;
23252;SDS011;11795;47.054;15.408;2023-06-14T01:04:01;3.8;;;3.0;;
23252;SDS011;11795;47.054;15.408;2023-06-14T01:06:04;3.8;;;3.0;;
23252;SDS011;11795;47.054;15.408;2023-06-14T01:08:05;3.8;;;3.0;;
23252;SDS011;11795;47.054;15.408;2023-06-14T01:10:04;3.9;;;3.2;;
23252;SDS011;11795;47.054;15.408;2023-06-14T01:12:02;3.9;;;3.2;;
23252;SDS011;11795;47.054;15.408;2023-06-14T01:14:01;3.7;;;3.4;;
23252;SDS011;11795;47.054;15.408;2023-06-14T01:16:00;3.7;;;3.4;;
23252;SDS011;11795;47.054;15.408;2023-06-14T01:18:03;3.7;;;3.4;;
23252;SDS011;11795;47.054;15.408;2023-06-14T01:20:00;4.2;;;3.1;;
23252;SDS011;11795;47.054;15.408;2023-06-14T01:22:00;4.2;;;3.1;;
23252;SDS011;11795;47.054;15.408;2023-06-14T01:24:03;3.0;;;2.7;;
23252;SDS011;11795;47.054;15.408;2023-06-14T01:26:03;3.0;;;2.7;;
23252;SDS011;11795;47.054;15.408;2023-06-14T01:28:00;3.0;;;2.7;;
23252;SDS011;11795;47.054;15.408;2023-06-14T01:30:02;3.9;;;3.0;;
23252;SDS011;11795;47.054;15.408;2023-06-14T01:32:00;3.9;;;3.0;;
23252;SDS011;11795;47.054;15.408;2023-06-14T01:34:00;3.0;;;2.7;;
23252;SDS011;11795;47.054;15.408;2023-06-14T01:36:00;3.0;;;2.7;;
23252;SDS011;11795;47.054;15.408;2023-06-14T01:38:00;3.0;;;2.7;;
23252;SDS011;11795;47.054;15.408;2023-06-14T01:40:00;3.6;;;2.7;;
23252;SDS011;11795;47.054;15.408;2023-06-14T01:42:00;3.6;;;2.7;;
23252;SDS011;11795;47.054;15.408;2023-06-14T01:44:00;3.7;;;3.2;;
23252;SDS011;11795;47.054;15.408;2023-06-14T01:46:00;3.7;;;3.2;;
23252;SDS011;11795;47.054;15.408;2023-06-14T01:48:00;3.7;;;3.2;;
23252;SDS011;11795;47.054;15.408;2023-06-14T01:50:01;3.6;;;3.0;;
23252;SDS011;11795;47.054;15.408;2023-06-14T01:52:00;3.6;;;3.0;;
23252;SDS011;11795;47.054;15.408;2023-06-14T01:54:00;4.9;;;3.1;;
23252;SDS011;11795;47.054;15.408;2023-06-14T01:56:01;4.9;;;3.1;;
23252;SDS011;11795;47.054;15.408;2023-06-14T01:58:00;4.9;;;3.1;;
23252;SDS011;11795;47.054;15.408;2023-06-14T02:00:00;3.6;;;3.3;;
23252;SDS011;11795;47.054;15.408;2023-06-14T02:02:01;3.6;;;3.3;;
23252;SDS011;11795;47.054;15.408;2023-06-14T02:04:00;3.8;;;2.8;;
23252;SDS011;11795;47.054;15.408;2023-06-14T02:06:00;3.8;;;2.8;;
23252;SDS011;11795;47.054;15.408;2023-06-14T02:08:00;3.8;;;2.8;;
23252;SDS011;11795;47.054;15.408;2023-06-14T02:10:00;3.5;;;3.2;;
23252;SDS011;11795;47.054;15.408;2023-06-14T02:12:00;3.5;;;3.2;;
23252;SDS011;11795;47.054;15.408;2023-06-14T02:14:01;4.2;;;3.0;;
23252;SDS011;11795;47.054;15.408;2023-06-14T02:16:00;4.2;;;3.0;;
23252;SDS011;11795;47.054;15.408;2023-06-14T02:18:01;4.2;;;3.0;;
23252;SDS011;11795;47.054;15.408;2023-06-14T02:20:00;4.1;;;3.0;;
23252;SDS011;11795;47.054;15.408;2023-06-14T02:22:02;4.1;;;3.0;;
23252;SDS011;11795;47.054;15.408;2023-06-14T02:24:01;3.1;;;2.8;;
23252;SDS011;11795;47.054;15.408;2023-06-14T02:26:00;3.1;;;2.8;;
23252;SDS011;11795;47.054;15.408;2023-06-14T02:28:00;3.1;;;2.8;;
23252;SDS011;11795;47.054;15.408;2023-06-14T02:30:00;4.0;;;3.2;;
23252;SDS011;11795;47.054;15.408;2023-06-14T02:32:00;4.0;;;3.2;;
23252;SDS011;11795;47.054;15.408;2023-06-14T02:34:00;4.2;;;3.3;;
23252;SDS011;11795;47.054;15.408;2023-06-14T02:36:02;4.2;;;3.3;;
23252;SDS011;11795;47.054;15.408;2023-06-14T02:38:01;4.2;;;3.3;;
23252;SDS011;11795;47.054;15.408;2023-06-14T02:40:00;3.3;;;3.0;;
23252;SDS011;11795;47.054;15.408;2023-06-14T02:42:00;3.3;;;3.0;;
23252;SDS011;11795;47.054;15.408;2023-06-14T02:44:00;5.4;;;3.6;;
23252;SDS011;11795;47.054;15.408;2023-06-14T02:46:00;5.4;;;3.6;;
23252;SDS011;11795;47.054;15.408;2023-06-14T02:48:00;5.4;;;3.6;;
23252;SDS011;11795;47.054;15.408;2023-06-14T02:50:00;3.7;;;3.4;;
23252;SDS011;11795;47.054;15.408;2023-06-14T02:52:00;3.7;;;3.4;;
23252;SDS011;11795;47.054;15.408;2023-06-14T02:54:00;4.2;;;3.4;;
23252;SDS011;11795;47.054;15.408;2023-06-14T02:56:01;4.2;;;3.4;;
23252;SDS011;11795;47.054;15.408;2023-06-14T02:58:00;4.2;;;3.4;;
23252;SDS011;11795;47.054;15.408;2023-06-14T03:00:00;3.9;;;3.5;;
23252;SDS011;11795;47.054;15.408;2023-06-14T03:02:00;3.9;;;3.5;;
23252;SDS011;11795;47.054;15.408;2023-06-14T03:04:00;3.6;;;3.3;;
23252;SDS011;11795;47.054;15.408;2023-06-14T03:06:04;3.6;;;3.3;;
23252;SDS011;11795;47.054;15.408;2023-06-14T03:08:00;3.6;;;3.3;;
23252;SDS011;11795;47.054;15.408;2023-06-14T03:10:00;3.6;;;3.2;;
23252;SDS011;11795;47.054;15.408;2023-06-14T03:12:00;3.6;;;3.2;;
23252;SDS011;11795;47.054;15.408;2023-06-14T03:14:00;3.7;;;3.2;;
23252;SDS011;11795;47.054;15.408;2023-06-14T03:16:02;3.7;;;3.2;;
23252;SDS011;11795;47.054;15.408;2023-06-14T03:18:00;3.7;;;3.2;;
23252;SDS011;11795;47.054;15.408;2023-06-14T03:20:00;4.5;;;3.4;;
23252;SDS011;11795;47.054;15.408;2023-06-14T03:22:00;4.5;;;3.4;;
23252;SDS011;11795;47.054;15.408;2023-06-14T03:24:00;4.5;;;3.4;;
23252;SDS011;11795;47.054;15.408;2023-06-14T03:26:00;4.0;;;3.1;;
23252;SDS011;11795;47.054;15.408;2023-06-14T03:28:00;4.0;;;3.1;;
23252;SDS011;11795;47.054;15.408;2023-06-14T03:30:00;3.8;;;3.3;;
23252;SDS011;11795;47.054;15.408;2023-06-14T03:32:01;3.8;;;3.3;;
23252;SDS011;11795;47.054;15.408;2023-06-14T03:34:00;3.8;;;3.3;;
23252;SDS011;11795;47.054;15.408;2023-06-14T03:36:00;4.8;;;3.3;;
23252;SDS011;11795;47.054;15.408;2023-06-14T03:38:00;4.8;;;3.3;;
23252;SDS011;11795;47.054;15.408;2023-06-14T03:40:01;3.4;;;3.1;;
23252;SDS011;11795;47.054;15.408;2023-06-14T03:42:00;3.4;;;3.1;;
23252;SDS011;11795;47.054;15.408;2023-06-14T03:44:00;3.4;;;3.1;;
23252;SDS011;11795;47.054;15.408;2023-06-14T03:46:00;4.2;;;3.2;;
23252;SDS011;11795;47.054;15.408;2023-06-14T03:48:00;4.2;;;3.2;;
23252;SDS011;11795;47.054;15.408;2023-06-14T03:50:01;4.9;;;3.8;;
23252;SDS011;11795;47.054;15.408;2023-06-14T03:52:00;4.9;;;3.8;;
23252;SDS011;11795;47.054;15.408;2023-06-14T03:54:00;4.9;;;3.8;;
23252;SDS011;11795;47.054;15.408;2023-06-14T03:56:00;3.9;;;3.5;;
23252;SDS011;11795;47.054;15.408;2023-06-14T03:58:00;3.9;;;3.5;;
23252;SDS011;11795;47.054;15.408;2023-06-14T04:00:00;4.3;;;3.7;;
23252;SDS011;11795;47.054;15.408;2023-06-14T04:02:00;4.3;;;3.7;;
23252;SDS011;11795;47.054;15.408;2023-06-14T04:04:01;4.3;;;3.7;;
23252;SDS011;11795;47.054;15.408;2023-06-14T04:06:00;3.6;;;3.3;;
23252;SDS011;11795;47.054;15.408;2023-06-14T04:08:01;3.6;;;3.3;;
23252;SDS011;11795;47.054;15.408;2023-06-14T04:10:00;3.8;;;3.1;;
23252;SDS011;11795;47.054;15.408;2023-06-14T04:12:00;3.8;;;3.1;;
23252;SDS011;11795;47.054;15.408;2023-06-14T04:14:02;3.8;;;3.1;;
23252;SDS011;11795;47.054;15.408;2023-06-14T04:16:00;3.3;;;3.0;;
23252;SDS011;11795;47.054;15.408;2023-06-14T04:18:00;3.3;;;3.0;;
23252;SDS011;11795;47.054;15.408;2023-06-14T04:20:00;4.5;;;3.2;;
23252;SDS011;11795;47.054;15.408;2023-06-14T04:22:02;4.5;;;3.2;;
23252;SDS011;11795;47.054;15.408;2023-06-14T04:24:02;4.5;;;3.2;;
23252;SDS011;11795;47.054;15.408;2023-06-14T04:26:02;4.4;;;3.4;;
23252;SDS011;11795;47.054;15.408;2023-06-14T04:28:01;4.4;;;3.4;;
23252;SDS011;11795;47.054;15.408;2023-06-14T04:30:03;4.3;;;3.3;;
23252;SDS011;11795;47.054;15.408;2023-06-14T04:32:01;4.3;;;3.3;;
23252;SDS011;11795;47.054;15.408;2023-06-14T04:34:00;4.3;;;3.3;;
23252;SDS011;11795;47.054;15.408;2023-06-14T04:36:00;5.8;;;3.2;;
23252;SDS011;11795;47.054;15.408;2023-06-14T04:38:02;5.8;;;3.2;;
23252;SDS011;11795;47.054;15.408;2023-06-14T04:40:00;6.1;;;4.0;;
23252;SDS011;11795;47.054;15.408;2023-06-14T04:42:00;6.1;;;4.0;;
23252;SDS011;11795;47.054;15.408;2023-06-14T04:44:01;6.1;;;4.0;;
23252;SDS011;11795;47.054;15.408;2023-06-14T04:46:01;5.3;;;4.0;;
23252;SDS011;11795;47.054;15.408;2023-06-14T04:48:01;5.3;;;4.0;;
23252;SDS011;11795;47.054;15.408;2023-06-14T04:50:00;6.2;;;4.2;;
23252;SDS011;11795;47.054;15.408;2023-06-14T04:52:01;6.2;;;4.2;;
23252;SDS011;11795;47.054;15.408;2023-06-14T04:54:01;6.2;;;4.2;;
23252;SDS011;11795;47.054;15.408;2023-06-14T04:56:01;4.9;;;4.1;;
23252;SDS011;11795;47.054;15.408;2023-06-14T04:58:00;4.9;;;4.1;;
23252;SDS011;11795;47.054;15.408;2023-06-14T05:00:01;4.9;;;4.1;;
23252;SDS011;11795;47.054;15.408;2023-06-14T05:02:00;4.9;;;4.1;;
23252;SDS011;11795;47.054;15.408;2023-06-14T05:04:00;4.9;;;4.1;;
23252;SDS011;11795;47.054;15.408;2023-06-14T05:06:00;4.5;;;3.6;;
23252;SDS011;11795;47.054;15.408;2023-06-14T05:08:00;4.5;;;3.6;;
23252;SDS011;11795;47.054;15.408;2023-06-14T05:10:00;4.3;;;3.9;;
23252;SDS011;11795;47.054;15.408;2023-06-14T05:12:00;4.3;;;3.9;;
23252;SDS011;11795;47.054;15.408;2023-06-14T05:14:01;4.3;;;3.9;;
23252;SDS011;11795;47.054;15.408;2023-06-14T05:16:00;5.3;;;4.2;;
23252;SDS011;11795;47.054;15.408;2023-06-14T05:18:00;5.3;;;4.2;;
23252;SDS011;11795;47.054;15.408;2023-06-14T05:20:01;4.0;;;3.5;;
23252;SDS011;11795;47.054;15.408;2023-06-14T05:22:00;4.0;;;3.5;;
23252;SDS011;11795;47.054;15.408;2023-06-14T05:24:00;4.0;;;3.5;;
23252;SDS011;11795;47.054;15.408;2023-06-14T05:26:02;4.9;;;3.7;;
23252;SDS011;11795;47.054;15.408;2023-06-14T05:28:00;4.9;;;3.7;;
23252;SDS011;11795;47.054;15.408;2023-06-14T05:30:00;5.0;;;3.3;;
23252;SDS011;11795;47.054;15.408;2023-06-14T05:32:01;5.0;;;3.3;;
23252;SDS011;11795;47.054;15.408;2023-06-14T05:34:00;5.0;;;3.3;;
23252;SDS011;11795;47.054;15.408;2023-06-14T05:36:00;4.3;;;3.7;;
23252;SDS011;11795;47.054;15.408;2023-06-14T05:38:01;4.3;;;3.7;;
23252;SDS011;11795;47.054;15.408;2023-06-14T05:40:00;4.5;;;4.0;;
23252;SDS011;11795;47.054;15.408;2023-06-14T05:42:00;4.5;;;4.0;;
23252;SDS011;11795;47.054;15.408;2023-06-14T05:44:00;4.5;;;4.0;;
23252;SDS011;11795;47.054;15.408;2023-06-14T05:46:00;4.7;;;3.9;;
23252;SDS011;11795;47.054;15.408;2023-06-14T05:48:00;4.7;;;3.9;;
23252;SDS011;11795;47.054;15.408;2023-06-14T05:50:00;5.2;;;4.1;;
23252;SDS011;11795;47.054;15.408;2023-06-14T05:52:00;5.2;;;4.1;;
23252;SDS011;11795;47.054;15.408;2023-06-14T05:54:01;5.2;;;4.1;;
23252;SDS011;11795;47.054;15.408;2023-06-14T05:56:01;4.7;;;3.9;;
23252;SDS011;11795;47.054;15.408;2023-06-14T05:58:00;4.7;;;3.9;;
23252;SDS011;11795;47.054;15.408;2023-06-14T06:00:00;5.4;;;4.0;;
23252;SDS011;11795;47.054;15.408;2023-06-14T06:02:00;5.4;;;4.0;;
23252;SDS011;11795;47.054;15.408;2023-06-14T06:04:00;5.4;;;4.0;;
23252;SDS011;11795;47.054;15.408;2023-06-14T06:06:00;6.3;;;4.5;;
23252;SDS011;11795;47.054;15.408;2023-06-14T06:08:00;6.3;;;4.5;;
23252;SDS011;11795;47.054;15.408;2023-06-14T06:10:00;5.6;;;4.3;;
23252;SDS011;11795;47.054;15.408;2023-06-14T06:12:00;5.6;;;4.3;;
23252;SDS011;11795;47.054;15.408;2023-06-14T06:14:00;5.6;;;4.3;;
23252;SDS011;11795;47.054;15.408;2023-06-14T06:16:00;5.6;;;4.2;;
23252;SDS011;11795;47.054;15.408;2023-06-14T06:18:00;5.6;;;4.2;;
23252;SDS011;11795;47.054;15.408;2023-06-14T06:20:00;6.3;;;3.9;;
23252;SDS011;11795;47.054;15.408;2023-06-14T06:22:00;6.3;;;3.9;;
23252;SDS011;11795;47.054;15.408;2023-06-14T06:24:04;6.3;;;3.9;;
23252;SDS011;11795;47.054;15.408;2023-06-14T06:26:00;10.0;;;5.0;;
23252;SDS011;11795;47.054;15.408;2023-06-14T06:28:00;10.0;;;5.0;;
23252;SDS011;11795;47.054;15.408;2023-06-14T06:30:01;6.1;;;4.9;;
23252;SDS011;11795;47.054;15.408;2023-06-14T06:32:00;6.1;;;4.9;;
23252;SDS011;11795;47.054;15.408;2023-06-14T06:34:00;6.1;;;4.9;;
23252;SDS011;11795;47.054;15.408;2023-06-14T06:36:00;6.2;;;4.9;;
23252;SDS011;11795;47.054;15.408;2023-06-14T06:38:00;6.2;;;4.9;;
23252;SDS011;11795;47.054;15.408;2023-06-14T06:40:00;29.5;;;7.6;;
23252;SDS011;11795;47.054;15.408;2023-06-14T06:42:01;29.5;;;7.6;;
23252;SDS011;11795;47.054;15.408;2023-06-14T06:44:00;29.5;;;7.6;;
23252;SDS011;11795;47.054;15.408;2023-06-14T06:46:00;6.7;;;4.6;;
23252;SDS011;11795;47.054;15.408;2023-06-14T06:48:00;6.7;;;4.6;;
23252;SDS011;11795;47.054;15.408;2023-06-14T06:50:00;5.7;;;4.5;;
23252;SDS011;11795;47.054;15.408;2023-06-14T06:52:01;5.7;;;4.5;;
23252;SDS011;11795;47.054;15.408;2023-06-14T06:54:00;5.7;;;4.5;;
23252;SDS011;11795;47.054;15.408;2023-06-14T06:56:00;5.5;;;4.3;;
23252;SDS011;11795;47.054;15.408;2023-06-14T06:58:00;5.5;;;4.3;;
23252;SDS011;11795;47.054;15.408;2023-06-14T07:00:00;5.6;;;4.1;;
23252;SDS011;11795;47.054;15.408;2023-06-14T07:02:00;5.6;;;4.1;;
23252;SDS011;11795;47.054;15.408;2023-06-14T07:04:00;5.6;;;4.1;;
23252;SDS011;11795;47.054;15.408;2023-06-14T07:06:00;4.3;;;3.9;;
23252;SDS011;11795;47.054;15.408;2023-06-14T07:08:00;4.3;;;3.9;;
23252;SDS011;11795;47.054;15.408;2023-06-14T07:10:04;5.6;;;4.0;;
23252;SDS011;11795;47.054;15.408;2023-06-14T07:12:00;5.6;;;4.0;;
23252;SDS011;11795;47.054;15.408;2023-06-14T07:14:00;5.6;;;4.0;;
23252;SDS011;11795;47.054;15.408;2023-06-14T07:16:00;3.9;;;3.2;;
23252;SDS011;11795;47.054;15.408;2023-06-14T07:18:00;3.9;;;3.2;;
23252;SDS011;11795;47.054;15.408;2023-06-14T07:20:01;4.9;;;3.7;;
23252;SDS011;11795;47.054;15.408;2023-06-14T07:22:00;4.9;;;3.7;;
23252;SDS011;11795;47.054;15.408;2023-06-14T07:24:00;4.9;;;3.7;;
23252;SDS011;11795;47.054;15.408;2023-06-14T07:26:00;4.8;;;3.3;;
23252;SDS011;11795;47.054;15.408;2023-06-14T07:28:00;4.8;;;3.3;;
23252;SDS011;11795;47.054;15.408;2023-06-14T07:30:00;4.7;;;3.4;;
23252;SDS011;11795;47.054;15.408;2023-06-14T07:32:00;4.7;;;3.4;;
23252;SDS011;11795;47.054;15.408;2023-06-14T07:34:00;4.7;;;3.4;;
23252;SDS011;11795;47.054;15.408;2023-06-14T07:36:00;4.7;;;3.2;;
23252;SDS011;11795;47.054;15.408;2023-06-14T07:38:00;4.7;;;3.2;;
23252;SDS011;11795;47.054;15.408;2023-06-14T07:40:00;3.5;;;3.2;;
23252;SDS011;11795;47.054;15.408;2023-06-14T07:42:00;3.5;;;3.2;;
23252;SDS011;11795;47.054;15.408;2023-06-14T07:44:00;3.5;;;3.2;;
23252;SDS011;11795;47.054;15.408;2023-06-14T07:46:00;4.6;;;3.4;;
23252;SDS011;11795;47.054;15.408;2023-06-14T07:48:00;4.6;;;3.4;;
23252;SDS011;11795;47.054;15.408;2023-06-14T07:50:00;3.9;;;3.5;;
23252;SDS011;11795;47.054;15.408;2023-06-14T07:52:00;3.9;;;3.5;;
23252;SDS011;11795;47.054;15.408;2023-06-14T07:54:01;3.9;;;3.5;;
23252;SDS011;11795;47.054;15.408;2023-06-14T07:56:00;5.3;;;3.8;;
23252;SDS011;11795;47.054;15.408;2023-06-14T07:58:00;5.3;;;3.8;;
23252;SDS011;11795;47.054;15.408;2023-06-14T08:00:00;4.3;;;3.4;;
23252;SDS011;11795;47.054;15.408;2023-06-14T08:02:00;4.3;;;3.4;;
23252;SDS011;11795;47.054;15.408;2023-06-14T08:04:01;4.3;;;3.4;;
23252;SDS011;11795;47.054;15.408;2023-06-14T08:06:00;5.0;;;3.6;;
23252;SDS011;11795;47.054;15.408;2023-06-14T08:08:00;5.0;;;3.6;;
23252;SDS011;11795;47.054;15.408;2023-06-14T08:10:00;5.0;;;3.4;;
23252;SDS011;11795;47.054;15.408;2023-06-14T08:12:00;5.0;;;3.4;;
23252;SDS011;11795;47.054;15.408;2023-06-14T08:14:00;5.0;;;3.4;;
23252;SDS011;11795;47.054;15.408;2023-06-14T08:16:01;4.1;;;3.5;;
23252;SDS011;11795;47.054;15.408;2023-06-14T08:18:01;4.1;;;3.5;;
23252;SDS011;11795;47.054;15.408;2023-06-14T08:20:00;4.2;;;3.6;;
23252;SDS011;11795;47.054;15.408;2023-06-14T08:22:00;4.2;;;3.6;;
23252;SDS011;11795;47.054;15.408;2023-06-14T08:24:00;4.2;;;3.6;;
23252;SDS011;11795;47.054;15.408;2023-06-14T08:26:01;3.5;;;3.2;;
23252;SDS011;11795;47.054;15.408;2023-06-14T08:28:00;3.5;;;3.2;;
23252;SDS011;11795;47.054;15.408;2023-06-14T08:30:00;4.6;;;3.7;;
23252;SDS011;11795;47.054;15.408;2023-06-14T08:32:02;4.6;;;3.7;;
23252;SDS011;11795;47.054;15.408;2023-06-14T08:34:00;4.6;;;3.7;;
23252;SDS011;11795;47.054;15.408;2023-06-14T08:36:00;5.1;;;3.9;;
23252;SDS011;11795;47.054;15.408;2023-06-14T08:38:00;5.1;;;3.9;;
23252;SDS011;11795;47.054;15.408;2023-06-14T08:40:00;6.6;;;4.9;;
23252;SDS011;11795;47.054;15.408;2023-06-14T08:42:01;6.6;;;4.9;;
23252;SDS011;11795;47.054;15.408;2023-06-14T08:44:00;6.6;;;4.9;;
23252;SDS011;11795;47.054;15.408;2023-06-14T08:46:01;5.5;;;4.6;;
23252;SDS011;11795;47.054;15.408;2023-06-14T08:48:01;5.5;;;4.6;;
23252;SDS011;11795;47.054;15.408;2023-06-14T08:50:00;5.6;;;4.6;;
23252;SDS011;11795;47.054;15.408;2023-06-14T08:52:00;5.6;;;4.6;;
23252;SDS011;11795;47.054;15.408;2023-06-14T08:54:01;5.6;;;4.6;;
23252;SDS011;11795;47.054;15.408;2023-06-14T08:56:01;5.7;;;4.6;;
23252;SDS011;11795;47.054;15.408;2023-06-14T08:58:01;5.7;;;4.6;;
23252;SDS011;11795;47.054;15.408;2023-06-14T09:00:01;6.3;;;4.4;;
23252;SDS011;11795;47.054;15.408;2023-06-14T09:02:00;6.3;;;4.4;;
23252;SDS011;11795;47.054;15.408;2023-06-14T09:04:00;6.3;;;4.4;;
23252;SDS011;11795;47.054;15.408;2023-06-14T09:06:01;5.6;;;4.6;;
23252;SDS011;11795;47.054;15.408;2023-06-14T09:08:00;5.6;;;4.6;;
23252;SDS011;11795;47.054;15.408;2023-06-14T09:10:09;5.6;;;4.6;;
23252;SDS011;11795;47.054;15.408;2023-06-14T09:12:00;4.9;;;4.4;;
23252;SDS011;11795;47.054;15.408;2023-06-14T09:14:00;4.9;;;4.4;;
23252;SDS011;11795;47.054;15.408;2023-06-14T09:16:00;6.1;;;4.9;;
23252;SDS011;11795;47.054;15.408;2023-06-14T09:18:00;6.1;;;4.9;;
23252;SDS011;11795;47.054;15.408;2023-06-14T09:20:00;6.1;;;4.9;;
23252;SDS011;11795;47.054;15.408;2023-06-14T09:22:00;5.5;;;4.7;;
23252;SDS011;11795;47.054;15.408;2023-06-14T09:24:00;5.5;;;4.7;;
23252;SDS011;11795;47.054;15.408;2023-06-14T09:26:00;6.0;;;5.4;;
23252;SDS011;11795;47.054;15.408;2023-06-14T09:28:00;6.0;;;5.4;;
23252;SDS011;11795;47.054;15.408;2023-06-14T09:30:01;6.0;;;5.4;;
23252;SDS011;11795;47.054;15.408;2023-06-14T09:32:00;5.8;;;4.7;;
23252;SDS011;11795;47.054;15.408;2023-06-14T09:34:01;5.8;;;4.7;;
23252;SDS011;11795;47.054;15.408;2023-06-14T09:36:00;5.4;;;4.9;;
23252;SDS011;11795;47.054;15.408;2023-06-14T09:38:00;5.4;;;4.9;;
23252;SDS011;11795;47.054;15.408;2023-06-14T09:40:00;5.4;;;4.9;;
23252;SDS011;11795;47.054;15.408;2023-06-14T09:42:00;4.6;;;4.1;;
23252;SDS011;11795;47.054;15.408;2023-06-14T09:44:00;4.6;;;4.1;;
23252;SDS011;11795;47.054;15.408;2023-06-14T09:46:00;5.7;;;4.7;;
23252;SDS011;11795;47.054;15.408;2023-06-14T09:48:00;5.7;;;4.7;;
23252;SDS011;11795;47.054;15.408;2023-06-14T09:50:00;5.7;;;4.7;;
23252;SDS011;11795;47.054;15.408;2023-06-14T09:52:00;6.5;;;4.5;;
23252;SDS011;11795;47.054;15.408;2023-06-14T09:54:01;6.5;;;4.5;;
23252;SDS011;11795;47.054;15.408;2023-06-14T09:56:00;4.3;;;3.9;;
23252;SDS011;11795;47.054;15.408;2023-06-14T09:58:00;4.3;;;3.9;;
23252;SDS011;11795;47.054;15.408;2023-06-14T10:00:01;4.3;;;3.9;;
23252;SDS011;11795;47.054;15.408;2023-06-14T10:02:02;4.1;;;3.7;;
23252;SDS011;11795;47.054;15.408;2023-06-14T10:04:01;4.1;;;3.7;;
23252;SDS011;11795;47.054;15.408;2023-06-14T10:06:02;3.9;;;3.5;;
23252;SDS011;11795;47.054;15.408;2023-06-14T10:08:03;3.9;;;3.5;;
23252;SDS011;11795;47.054;15.408;2023-06-14T10:10:00;3.9;;;3.5;;
23252;SDS011;11795;47.054;15.408;2023-06-14T10:12:00;4.8;;;4.0;;
23252;SDS011;11795;47.054;15.408;2023-06-14T10:14:00;4.8;;;4.0;;
23252;SDS011;11795;47.054;15.408;2023-06-14T10:16:04;4.0;;;3.6;;
23252;SDS011;11795;47.054;15.408;2023-06-14T10:18:01;4.0;;;3.6;;
23252;SDS011;11795;47.054;15.408;2023-06-14T10:20:06;4.0;;;3.6;;
23252;SDS011;11795;47.054;15.408;2023-06-14T10:22:01;4.1;;;3.4;;
23252;SDS011;11795;47.054;15.408;2023-06-14T10:24:01;4.1;;;3.4;;
23252;SDS011;11795;47.054;15.408;2023-06-14T10:26:00;4.0;;;3.3;;
23252;SDS011;11795;47.054;15.408;2023-06-14T10:28:05;4.0;;;3.3;;
23252;SDS011;11795;47.054;15.408;2023-06-14T10:30:02;4.0;;;3.3;;
23252;SDS011;11795;47.054;15.408;2023-06-14T10:32:00;3.8;;;3.0;;
23252;SDS011;11795;47.054;15.408;2023-06-14T10:34:00;3.8;;;3.0;;
23252;SDS011;11795;47.054;15.408;2023-06-14T10:38:08;3.4;;;2.8;;
23252;SDS011;11795;47.054;15.408;2023-06-14T10:40:00;3.4;;;2.8;;
23252;SDS011;11795;47.054;15.408;2023-06-14T10:42:01;3.7;;;3.2;;
23252;SDS011;11795;47.054;15.408;2023-06-14T10:48:02;3.2;;;2.9;;
23252;SDS011;11795;47.054;15.408;2023-06-14T10:50:04;3.2;;;2.9;;
23252;SDS011;11795;47.054;15.408;2023-06-14T10:52:00;3.4;;;3.1;;
23252;SDS011;11795;47.054;15.408;2023-06-14T10:54:00;3.4;;;3.1;;
23252;SDS011;11795;47.054;15.408;2023-06-14T10:56:05;3.5;;;2.8;;
23252;SDS011;11795;47.054;15.408;2023-06-14T10:58:00;3.5;;;2.8;;
23252;SDS011;11795;47.054;15.408;2023-06-14T11:00:00;3.5;;;2.8;;
23252;SDS011;11795;47.054;15.408;2023-06-14T11:02:07;3.5;;;2.6;;
23252;SDS011;11795;47.054;15.408;2023-06-14T11:04:06;3.5;;;2.6;;
23252;SDS011;11795;47.054;15.408;2023-06-14T11:06:00;2.7;;;2.5;;
23252;SDS011;11795;47.054;15.408;2023-06-14T11:08:09;2.7;;;2.5;;
23252;SDS011;11795;47.054;15.408;2023-06-14T11:10:05;2.7;;;2.5;;
23252;SDS011;11795;47.054;15.408;2023-06-14T11:12:00;3.0;;;2.6;;
23252;SDS011;11795;47.054;15.408;2023-06-14T11:14:01;3.0;;;2.6;;
23252;SDS011;11795;47.054;15.408;2023-06-14T11:16:00;3.3;;;2.7;;
23252;SDS011;11795;47.054;15.408;2023-06-14T11:18:01;3.3;;;2.7;;
23252;SDS011;11795;47.054;15.408;2023-06-14T11:20:08;3.3;;;2.7;;
23252;SDS011;11795;47.054;15.408;2023-06-14T11:22:00;4.4;;;2.8;;
23252;SDS011;11795;47.054;15.408;2023-06-14T11:24:00;4.4;;;2.8;;
23252;SDS011;11795;47.054;15.408;2023-06-14T11:26:00;2.8;;;2.6;;
23252;SDS011;11795;47.054;15.408;2023-06-14T11:28:00;2.8;;;2.6;;
23252;SDS011;11795;47.054;15.408;2023-06-14T11:30:00;2.8;;;2.6;;
23252;SDS011;11795;47.054;15.408;2023-06-14T11:32:00;3.3;;;2.6;;
23252;SDS011;11795;47.054;15.408;2023-06-14T11:34:00;3.3;;;2.6;;
23252;SDS011;11795;47.054;15.408;2023-06-14T11:36:01;3.3;;;2.8;;
23252;SDS011;11795;47.054;15.408;2023-06-14T11:38:01;3.3;;;2.8;;
23252;SDS011;11795;47.054;15.408;2023-06-14T11:40:00;3.3;;;2.8;;
23252;SDS011;11795;47.054;15.408;2023-06-14T11:42:01;4.5;;;2.5;;
23252;SDS011;11795;47.054;15.408;2023-06-14T11:44:00;4.5;;;2.5;;
23252;SDS011;11795;47.054;15.408;2023-06-14T11:46:00;3.1;;;2.8;;
23252;SDS011;11795;47.054;15.408;2023-06-14T11:48:00;3.1;;;2.8;;
23252;SDS011;11795;47.054;15.408;2023-06-14T11:50:00;3.1;;;2.8;;
23252;SDS011;11795;47.054;15.408;2023-06-14T11:52:00;3.7;;;2.7;;
23252;SDS011;11795;47.054;15.408;2023-06-14T11:54:00;3.7;;;2.7;;
23252;SDS011;11795;47.054;15.408;2023-06-14T11:56:00;2.8;;;2.6;;
23252;SDS011;11795;47.054;15.408;2023-06-14T11:58:00;2.8;;;2.6;;
23252;SDS011;11795;47.054;15.408;2023-06-14T12:00:02;2.8;;;2.6;;
23252;SDS011;11795;47.054;15.408;2023-06-14T12:02:00;3.0;;;2.5;;
23252;SDS011;11795;47.054;15.408;2023-06-14T12:04:01;3.0;;;2.5;;
23252;SDS011;11795;47.054;15.408;2023-06-14T12:06:02;8.1;;;3.1;;
23252;SDS011;11795;47.054;15.408;2023-06-14T12:08:01;8.1;;;3.1;;
23252;SDS011;11795;47.054;15.408;2023-06-14T12:10:04;8.1;;;3.1;;
23252;SDS011;11795;47.054;15.408;2023-06-14T12:12:01;3.5;;;2.9;;
23252;SDS011;11795;47.054;15.408;2023-06-14T12:14:02;3.5;;;2.9;;
23252;SDS011;11795;47.054;15.408;2023-06-14T12:16:01;16.9;;;4.9;;
23252;SDS011;11795;47.054;15.408;2023-06-14T12:18:00;16.9;;;4.9;;